44MN weather

CLOSED Freedom Base Heliport
Hanover, Minnesota, United States

Public forecast

Using degrees Fahrenheit for public forecast. Weather courtesy of forecast.io.

Closest aviation weather report (METAR) to Freedom Base Heliport

Closest report is Buffalo Municipal Airport, 4.9 nm (9.0 km) W. Retrieved 2020/04/08 22:35 UTC (0 seconds ago):

KCFE 082235Z 10SM SCT070 SCT075 SCT085 10/M06 A2985 RMK AO2 T01021065

Closest aviation forecast (TAF) to Freedom Base Heliport

Forecast is more than 12 hours old.

Closest forecast is Anoka County-Blaine (Janes Field) Airport, 21.9 nm (40.6 km) E. Retrieved 2018/02/05 00:21 UTC (2 years ago):

TAF KANE 052320Z 0600/0624 28008KT P6SM FEW025 FM060300 30005KT P6SM FEW250 FM061600 21005KT P6SM SCT250 AMD NOT SKED